sensor_id;sensor_type;location;lat;lon;timestamp;temperature;humidity
6948;DHT22;3513;47.664;9.162;2023-02-01T00:02:23;4.20;96.30
6948;DHT22;3513;47.664;9.162;2023-02-01T00:04:49;4.20;96.30
6948;DHT22;3513;47.664;9.162;2023-02-01T00:07:14;4.20;96.30
6948;DHT22;3513;47.664;9.162;2023-02-01T00:09:40;4.30;96.30
6948;DHT22;3513;47.664;9.162;2023-02-01T00:12:06;4.40;96.10
6948;DHT22;3513;47.664;9.162;2023-02-01T00:14:31;4.50;95.70
6948;DHT22;3513;47.664;9.162;2023-02-01T00:17:06;4.50;95.40
6948;DHT22;3513;47.664;9.162;2023-02-01T00:19:33;4.50;95.40
6948;DHT22;3513;47.664;9.162;2023-02-01T00:21:59;4.50;95.30
6948;DHT22;3513;47.664;9.162;2023-02-01T00:24:25;4.40;95.20
6948;DHT22;3513;47.664;9.162;2023-02-01T00:26:50;4.60;95.20
6948;DHT22;3513;47.664;9.162;2023-02-01T00:29:18;4.50;95.20
6948;DHT22;3513;47.664;9.162;2023-02-01T00:31:44;4.50;95.20
6948;DHT22;3513;47.664;9.162;2023-02-01T00:34:14;4.50;95.30
6948;DHT22;3513;47.664;9.162;2023-02-01T00:36:41;4.50;95.20
6948;DHT22;3513;47.664;9.162;2023-02-01T00:39:07;4.50;95.00
6948;DHT22;3513;47.664;9.162;2023-02-01T00:41:32;4.50;94.90
6948;DHT22;3513;47.664;9.162;2023-02-01T00:43:58;4.50;94.90
6948;DHT22;3513;47.664;9.162;2023-02-01T00:46:24;4.50;95.00
6948;DHT22;3513;47.664;9.162;2023-02-01T00:48:49;4.50;95.00
6948;DHT22;3513;47.664;9.162;2023-02-01T00:51:18;4.40;94.90
6948;DHT22;3513;47.664;9.162;2023-02-01T00:53:44;4.40;94.80
6948;DHT22;3513;47.664;9.162;2023-02-01T00:56:11;4.40;95.00
6948;DHT22;3513;47.664;9.162;2023-02-01T00:58:37;4.30;95.00
6948;DHT22;3513;47.664;9.162;2023-02-01T01:01:14;4.30;95.10
6948;DHT22;3513;47.664;9.162;2023-02-01T01:03:42;4.30;95.20
6948;DHT22;3513;47.664;9.162;2023-02-01T01:06:10;4.30;95.00
6948;DHT22;3513;47.664;9.162;2023-02-01T01:08:37;4.40;94.80
6948;DHT22;3513;47.664;9.162;2023-02-01T01:11:11;4.40;94.60
6948;DHT22;3513;47.664;9.162;2023-02-01T01:13:37;7.40;95.60
6948;DHT22;3513;47.664;9.162;2023-02-01T01:16:07;4.50;94.20
6948;DHT22;3513;47.664;9.162;2023-02-01T01:18:33;4.40;94.20
6948;DHT22;3513;47.664;9.162;2023-02-01T01:21:00;4.40;94.30
6948;DHT22;3513;47.664;9.162;2023-02-01T01:23:26;4.40;94.40
6948;DHT22;3513;47.664;9.162;2023-02-01T01:25:52;4.30;94.40
6948;DHT22;3513;47.664;9.162;2023-02-01T01:28:18;4.30;94.50
6948;DHT22;3513;47.664;9.162;2023-02-01T01:30:43;4.30;94.60
6948;DHT22;3513;47.664;9.162;2023-02-01T01:33:09;4.30;94.60
6948;DHT22;3513;47.664;9.162;2023-02-01T01:35:35;4.30;94.60
6948;DHT22;3513;47.664;9.162;2023-02-01T01:38:01;4.30;94.50
6948;DHT22;3513;47.664;9.162;2023-02-01T01:40:28;4.40;94.40
6948;DHT22;3513;47.664;9.162;2023-02-01T01:42:54;4.40;94.50
6948;DHT22;3513;47.664;9.162;2023-02-01T01:45:22;4.30;94.60
6948;DHT22;3513;47.664;9.162;2023-02-01T01:47:54;4.40;94.50
6948;DHT22;3513;47.664;9.162;2023-02-01T01:50:26;4.40;94.40
6948;DHT22;3513;47.664;9.162;2023-02-01T01:52:55;4.40;94.20
6948;DHT22;3513;47.664;9.162;2023-02-01T01:55:23;4.30;94.10
6948;DHT22;3513;47.664;9.162;2023-02-01T01:57:57;4.40;94.10
6948;DHT22;3513;47.664;9.162;2023-02-01T02:00:24;4.40;94.20
6948;DHT22;3513;47.664;9.162;2023-02-01T02:02:54;4.30;94.40
6948;DHT22;3513;47.664;9.162;2023-02-01T02:05:22;4.30;94.40
6948;DHT22;3513;47.664;9.162;2023-02-01T02:07:49;4.30;94.50
6948;DHT22;3513;47.664;9.162;2023-02-01T02:10:16;4.40;94.40
6948;DHT22;3513;47.664;9.162;2023-02-01T02:12:44;4.50;94.40
6948;DHT22;3513;47.664;9.162;2023-02-01T02:15:13;4.40;94.40
6948;DHT22;3513;47.664;9.162;2023-02-01T02:18:05;4.40;94.30
6948;DHT22;3513;47.664;9.162;2023-02-01T02:21:18;4.40;94.10
6948;DHT22;3513;47.664;9.162;2023-02-01T02:23:38;4.50;94.20
6948;DHT22;3513;47.664;9.162;2023-02-01T02:26:44;4.40;94.10
6948;DHT22;3513;47.664;9.162;2023-02-01T02:34:22;4.30;94.20
6948;DHT22;3513;47.664;9.162;2023-02-01T02:42:59;4.30;94.30
6948;DHT22;3513;47.664;9.162;2023-02-01T02:46:21;4.30;94.20
6948;DHT22;3513;47.664;9.162;2023-02-01T02:49:18;4.30;94.20
6948;DHT22;3513;47.664;9.162;2023-02-01T02:51:54;4.30;94.10
6948;DHT22;3513;47.664;9.162;2023-02-01T02:54:43;4.30;94.10
6948;DHT22;3513;47.664;9.162;2023-02-01T02:57:28;4.30;94.20
6948;DHT22;3513;47.664;9.162;2023-02-01T03:00:17;4.30;94.20
6948;DHT22;3513;47.664;9.162;2023-02-01T03:03:02;4.20;94.20
6948;DHT22;3513;47.664;9.162;2023-02-01T03:05:49;4.20;94.20
6948;DHT22;3513;47.664;9.162;2023-02-01T03:08:28;4.20;94.30
6948;DHT22;3513;47.664;9.162;2023-02-01T03:10:59;4.20;94.40
6948;DHT22;3513;47.664;9.162;2023-02-01T03:13:52;4.10;94.40
6948;DHT22;3513;47.664;9.162;2023-02-01T03:16:20;4.10;94.30
6948;DHT22;3513;47.664;9.162;2023-02-01T03:19:16;4.10;94.50
6948;DHT22;3513;47.664;9.162;2023-02-01T03:21:53;3.90;94.60
6948;DHT22;3513;47.664;9.162;2023-02-01T03:24:28;4.00;94.70
6948;DHT22;3513;47.664;9.162;2023-02-01T03:27:09;3.90;94.60
6948;DHT22;3513;47.664;9.162;2023-02-01T03:30:00;3.90;94.80
6948;DHT22;3513;47.664;9.162;2023-02-01T03:32:24;3.90;94.80
6948;DHT22;3513;47.664;9.162;2023-02-01T03:34:50;3.80;94.80
6948;DHT22;3513;47.664;9.162;2023-02-01T03:37:24;3.80;94.80
6948;DHT22;3513;47.664;9.162;2023-02-01T03:40:05;3.80;94.90
6948;DHT22;3513;47.664;9.162;2023-02-01T03:42:40;3.80;94.90
6948;DHT22;3513;47.664;9.162;2023-02-01T03:45:14;3.80;94.90
6948;DHT22;3513;47.664;9.162;2023-02-01T03:47:48;3.70;94.90
6948;DHT22;3513;47.664;9.162;2023-02-01T03:50:17;3.60;95.10
6948;DHT22;3513;47.664;9.162;2023-02-01T03:52:45;3.60;95.50
6948;DHT22;3513;47.664;9.162;2023-02-01T03:55:15;3.50;95.60
6948;DHT22;3513;47.664;9.162;2023-02-01T03:57:45;3.40;95.90
6948;DHT22;3513;47.664;9.162;2023-02-01T04:00:23;3.40;96.00
6948;DHT22;3513;47.664;9.162;2023-02-01T04:02:49;3.30;96.20
6948;DHT22;3513;47.664;9.162;2023-02-01T04:05:15;3.30;96.30
6948;DHT22;3513;47.664;9.162;2023-02-01T04:07:41;3.30;96.40
6948;DHT22;3513;47.664;9.162;2023-02-01T04:10:07;3.40;96.50
6948;DHT22;3513;47.664;9.162;2023-02-01T04:12:33;3.30;96.50
6948;DHT22;3513;47.664;9.162;2023-02-01T04:14:58;3.30;96.60
6948;DHT22;3513;47.664;9.162;2023-02-01T04:17:24;3.30;96.70
6948;DHT22;3513;47.664;9.162;2023-02-01T04:19:50;3.30;96.70
6948;DHT22;3513;47.664;9.162;2023-02-01T04:22:15;3.30;96.70
6948;DHT22;3513;47.664;9.162;2023-02-01T04:24:41;3.30;96.60
6948;DHT22;3513;47.664;9.162;2023-02-01T04:27:06;3.40;96.70
6948;DHT22;3513;47.664;9.162;2023-02-01T04:29:33;3.50;96.40
6948;DHT22;3513;47.664;9.162;2023-02-01T04:31:58;3.50;96.30
6948;DHT22;3513;47.664;9.162;2023-02-01T04:34:24;3.50;96.40
6948;DHT22;3513;47.664;9.162;2023-02-01T04:36:50;3.50;96.40
6948;DHT22;3513;47.664;9.162;2023-02-01T04:39:16;3.60;96.70
6948;DHT22;3513;47.664;9.162;2023-02-01T04:41:42;3.70;96.10
6948;DHT22;3513;47.664;9.162;2023-02-01T04:44:14;3.60;96.20
6948;DHT22;3513;47.664;9.162;2023-02-01T04:46:40;3.70;96.20
6948;DHT22;3513;47.664;9.162;2023-02-01T04:49:07;3.60;96.20
6948;DHT22;3513;47.664;9.162;2023-02-01T04:51:33;3.70;96.20
6948;DHT22;3513;47.664;9.162;2023-02-01T04:53:58;3.70;96.10
6948;DHT22;3513;47.664;9.162;2023-02-01T04:56:24;3.60;96.20
6948;DHT22;3513;47.664;9.162;2023-02-01T04:58:50;3.70;96.20
6948;DHT22;3513;47.664;9.162;2023-02-01T05:01:15;3.70;96.20
6948;DHT22;3513;47.664;9.162;2023-02-01T05:03:41;3.80;96.20
6948;DHT22;3513;47.664;9.162;2023-02-01T05:06:07;3.70;96.10
6948;DHT22;3513;47.664;9.162;2023-02-01T05:08:33;3.80;96.20
6948;DHT22;3513;47.664;9.162;2023-02-01T05:10:58;3.80;96.20
6948;DHT22;3513;47.664;9.162;2023-02-01T05:13:25;3.70;96.30
6948;DHT22;3513;47.664;9.162;2023-02-01T05:16:09;3.70;96.40
6948;DHT22;3513;47.664;9.162;2023-02-01T05:18:34;3.70;96.50
6948;DHT22;3513;47.664;9.162;2023-02-01T05:21:00;2.20;95.80
6948;DHT22;3513;47.664;9.162;2023-02-01T05:23:27;3.70;96.70
6948;DHT22;3513;47.664;9.162;2023-02-01T05:25:52;3.70;96.70
6948;DHT22;3513;47.664;9.162;2023-02-01T05:28:23;3.70;96.60
6948;DHT22;3513;47.664;9.162;2023-02-01T05:30:48;3.70;96.70
6948;DHT22;3513;47.664;9.162;2023-02-01T05:33:14;3.70;96.60
6948;DHT22;3513;47.664;9.162;2023-02-01T05:35:39;3.70;96.50
6948;DHT22;3513;47.664;9.162;2023-02-01T05:38:05;3.60;96.50
6948;DHT22;3513;47.664;9.162;2023-02-01T05:40:30;3.60;96.50
6948;DHT22;3513;47.664;9.162;2023-02-01T05:42:56;3.50;96.30
6948;DHT22;3513;47.664;9.162;2023-02-01T05:45:21;3.50;96.60
6948;DHT22;3513;47.664;9.162;2023-02-01T05:47:47;3.50;96.70
6948;DHT22;3513;47.664;9.162;2023-02-01T05:50:13;3.40;96.70
6948;DHT22;3513;47.664;9.162;2023-02-01T05:52:38;3.40;97.00
6948;DHT22;3513;47.664;9.162;2023-02-01T05:55:04;3.50;99.60
6948;DHT22;3513;47.664;9.162;2023-02-01T05:57:30;3.70;97.20
6948;DHT22;3513;47.664;9.162;2023-02-01T05:59:56;3.70;96.50
6948;DHT22;3513;47.664;9.162;2023-02-01T06:02:22;3.80;96.30
6948;DHT22;3513;47.664;9.162;2023-02-01T06:04:49;3.70;96.40
6948;DHT22;3513;47.664;9.162;2023-02-01T06:07:15;3.60;96.40
6948;DHT22;3513;47.664;9.162;2023-02-01T06:09:41;3.70;96.50
6948;DHT22;3513;47.664;9.162;2023-02-01T06:12:06;3.70;96.60
6948;DHT22;3513;47.664;9.162;2023-02-01T06:14:32;3.60;96.70
6948;DHT22;3513;47.664;9.162;2023-02-01T06:16:57;3.60;96.60
6948;DHT22;3513;47.664;9.162;2023-02-01T06:19:23;3.60;96.60
6948;DHT22;3513;47.664;9.162;2023-02-01T06:21:49;3.60;96.70
6948;DHT22;3513;47.664;9.162;2023-02-01T06:24:15;3.50;96.70
6948;DHT22;3513;47.664;9.162;2023-02-01T06:26:41;3.50;96.80
6948;DHT22;3513;47.664;9.162;2023-02-01T06:29:09;3.40;97.10
6948;DHT22;3513;47.664;9.162;2023-02-01T06:31:34;3.40;97.30
6948;DHT22;3513;47.664;9.162;2023-02-01T06:34:00;3.50;97.20
6948;DHT22;3513;47.664;9.162;2023-02-01T06:36:25;3.60;97.00
6948;DHT22;3513;47.664;9.162;2023-02-01T06:38:51;3.60;96.90
6948;DHT22;3513;47.664;9.162;2023-02-01T06:41:17;3.60;96.80
6948;DHT22;3513;47.664;9.162;2023-02-01T06:43:43;3.70;96.50
6948;DHT22;3513;47.664;9.162;2023-02-01T06:46:11;3.70;96.60
6948;DHT22;3513;47.664;9.162;2023-02-01T06:48:37;3.70;96.50
6948;DHT22;3513;47.664;9.162;2023-02-01T06:51:03;3.70;96.40
6948;DHT22;3513;47.664;9.162;2023-02-01T06:53:29;3.70;96.20
6948;DHT22;3513;47.664;9.162;2023-02-01T06:55:59;3.70;96.30
6948;DHT22;3513;47.664;9.162;2023-02-01T06:58:32;3.70;96.20
6948;DHT22;3513;47.664;9.162;2023-02-01T07:01:04;3.70;96.70
6948;DHT22;3513;47.664;9.162;2023-02-01T07:03:30;3.70;96.20
6948;DHT22;3513;47.664;9.162;2023-02-01T07:05:57;3.70;96.30
6948;DHT22;3513;47.664;9.162;2023-02-01T07:08:24;3.70;96.60
6948;DHT22;3513;47.664;9.162;2023-02-01T07:10:50;3.80;96.90
6948;DHT22;3513;47.664;9.162;2023-02-01T07:13:15;3.70;97.20
6948;DHT22;3513;47.664;9.162;2023-02-01T07:15:41;3.70;97.20
6948;DHT22;3513;47.664;9.162;2023-02-01T07:18:06;3.60;98.00
6948;DHT22;3513;47.664;9.162;2023-02-01T07:20:32;3.50;98.20
6948;DHT22;3513;47.664;9.162;2023-02-01T07:22:58;3.50;98.50
6948;DHT22;3513;47.664;9.162;2023-02-01T07:25:24;3.50;98.40
6948;DHT22;3513;47.664;9.162;2023-02-01T07:27:49;3.50;98.40
6948;DHT22;3513;47.664;9.162;2023-02-01T07:30:15;3.50;98.60
6948;DHT22;3513;47.664;9.162;2023-02-01T07:32:40;3.50;98.30
6948;DHT22;3513;47.664;9.162;2023-02-01T07:35:06;3.60;98.30
6948;DHT22;3513;47.664;9.162;2023-02-01T07:37:32;3.60;98.00
6948;DHT22;3513;47.664;9.162;2023-02-01T07:39:57;3.50;98.00
6948;DHT22;3513;47.664;9.162;2023-02-01T07:42:23;3.40;98.50
6948;DHT22;3513;47.664;9.162;2023-02-01T07:44:48;3.40;98.70
6948;DHT22;3513;47.664;9.162;2023-02-01T07:47:14;3.40;98.80
6948;DHT22;3513;47.664;9.162;2023-02-01T07:49:39;3.40;98.90
6948;DHT22;3513;47.664;9.162;2023-02-01T07:52:05;3.40;98.90
6948;DHT22;3513;47.664;9.162;2023-02-01T07:54:31;3.40;99.10
6948;DHT22;3513;47.664;9.162;2023-02-01T07:56:56;3.40;98.90
6948;DHT22;3513;47.664;9.162;2023-02-01T07:59:22;3.30;99.10
6948;DHT22;3513;47.664;9.162;2023-02-01T08:01:47;3.30;99.40
6948;DHT22;3513;47.664;9.162;2023-02-01T08:04:13;3.30;99.30
6948;DHT22;3513;47.664;9.162;2023-02-01T08:06:39;3.30;99.90
6948;DHT22;3513;47.664;9.162;2023-02-01T08:09:06;3.30;99.90
6948;DHT22;3513;47.664;9.162;2023-02-01T08:11:34;3.40;99.90
6948;DHT22;3513;47.664;9.162;2023-02-01T08:14:01;3.40;99.90
6948;DHT22;3513;47.664;9.162;2023-02-01T08:16:27;3.40;99.90
6948;DHT22;3513;47.664;9.162;2023-02-01T08:18:53;3.40;99.90
6948;DHT22;3513;47.664;9.162;2023-02-01T08:21:25;3.40;99.90
6948;DHT22;3513;47.664;9.162;2023-02-01T08:23:51;3.50;99.90
6948;DHT22;3513;47.664;9.162;2023-02-01T08:26:19;3.40;99.90
6948;DHT22;3513;47.664;9.162;2023-02-01T08:28:51;3.40;99.90
6948;DHT22;3513;47.664;9.162;2023-02-01T08:31:18;3.50;99.90
6948;DHT22;3513;47.664;9.162;2023-02-01T08:33:50;3.50;99.90
6948;DHT22;3513;47.664;9.162;2023-02-01T08:36:16;3.50;99.90
6948;DHT22;3513;47.664;9.162;2023-02-01T08:38:42;3.50;99.90
6948;DHT22;3513;47.664;9.162;2023-02-01T08:41:13;4.40;99.90
6948;DHT22;3513;47.664;9.162;2023-02-01T08:43:40;3.50;99.90
6948;DHT22;3513;47.664;9.162;2023-02-01T08:46:06;3.50;99.90
6948;DHT22;3513;47.664;9.162;2023-02-01T08:48:32;3.60;99.90
6948;DHT22;3513;47.664;9.162;2023-02-01T08:51:02;3.60;99.90
6948;DHT22;3513;47.664;9.162;2023-02-01T08:53:28;3.70;99.90
6948;DHT22;3513;47.664;9.162;2023-02-01T08:55:54;3.70;99.90
6948;DHT22;3513;47.664;9.162;2023-02-01T08:58:19;3.80;99.90
6948;DHT22;3513;47.664;9.162;2023-02-01T09:00:47;3.70;99.90
6948;DHT22;3513;47.664;9.162;2023-02-01T09:03:16;3.80;99.90
6948;DHT22;3513;47.664;9.162;2023-02-01T09:05:42;3.80;99.90
6948;DHT22;3513;47.664;9.162;2023-02-01T09:08:08;3.80;99.90
6948;DHT22;3513;47.664;9.162;2023-02-01T09:10:35;3.80;99.90
6948;DHT22;3513;47.664;9.162;2023-02-01T09:13:01;3.80;99.90
6948;DHT22;3513;47.664;9.162;2023-02-01T09:15:28;3.80;99.90
6948;DHT22;3513;47.664;9.162;2023-02-01T09:17:53;3.90;99.90
6948;DHT22;3513;47.664;9.162;2023-02-01T09:20:19;5.50;99.90
6948;DHT22;3513;47.664;9.162;2023-02-01T09:22:50;3.90;99.90
6948;DHT22;3513;47.664;9.162;2023-02-01T09:25:15;3.90;99.90
6948;DHT22;3513;47.664;9.162;2023-02-01T09:27:41;4.00;99.90
6948;DHT22;3513;47.664;9.162;2023-02-01T09:30:07;4.10;99.90
6948;DHT22;3513;47.664;9.162;2023-02-01T09:32:33;4.00;99.90
6948;DHT22;3513;47.664;9.162;2023-02-01T09:34:58;4.10;99.90
6948;DHT22;3513;47.664;9.162;2023-02-01T09:37:24;4.00;99.90
6948;DHT22;3513;47.664;9.162;2023-02-01T09:39:50;4.10;99.90
6948;DHT22;3513;47.664;9.162;2023-02-01T09:47:49;4.20;99.90
6948;DHT22;3513;47.664;9.162;2023-02-01T09:50:30;4.20;99.90
6948;DHT22;3513;47.664;9.162;2023-02-01T09:53:01;4.20;99.90
6948;DHT22;3513;47.664;9.162;2023-02-01T09:55:31;4.20;99.90
6948;DHT22;3513;47.664;9.162;2023-02-01T09:58:04;4.30;99.90
6948;DHT22;3513;47.664;9.162;2023-02-01T10:00:36;4.30;99.70
6948;DHT22;3513;47.664;9.162;2023-02-01T10:03:03;4.20;99.40
6948;DHT22;3513;47.664;9.162;2023-02-01T10:09:15;4.30;99.70
6948;DHT22;3513;47.664;9.162;2023-02-01T10:23:05;4.60;99.10
6948;DHT22;3513;47.664;9.162;2023-02-01T10:25:37;4.60;98.90
6948;DHT22;3513;47.664;9.162;2023-02-01T10:28:13;4.60;98.70
6948;DHT22;3513;47.664;9.162;2023-02-01T10:30:44;4.70;98.80
6948;DHT22;3513;47.664;9.162;2023-02-01T10:33:25;4.70;98.60
6948;DHT22;3513;47.664;9.162;2023-02-01T10:35:58;4.70;98.50
6948;DHT22;3513;47.664;9.162;2023-02-01T10:38:27;5.20;98.70
6948;DHT22;3513;47.664;9.162;2023-02-01T10:41:17;4.80;98.40
6948;DHT22;3513;47.664;9.162;2023-02-01T10:43:42;4.80;98.40
6948;DHT22;3513;47.664;9.162;2023-02-01T10:46:08;4.90;98.70
6948;DHT22;3513;47.664;9.162;2023-02-01T10:48:34;4.90;98.20
6948;DHT22;3513;47.664;9.162;2023-02-01T10:51:05;4.90;98.10
6948;DHT22;3513;47.664;9.162;2023-02-01T10:53:35;5.00;98.20
6948;DHT22;3513;47.664;9.162;2023-02-01T10:56:09;5.10;98.10
6948;DHT22;3513;47.664;9.162;2023-02-01T10:58:36;5.20;97.70
6948;DHT22;3513;47.664;9.162;2023-02-01T11:01:09;5.30;97.40
6948;DHT22;3513;47.664;9.162;2023-02-01T11:03:42;5.40;96.90
6948;DHT22;3513;47.664;9.162;2023-02-01T11:06:22;5.50;97.00
6948;DHT22;3513;47.664;9.162;2023-02-01T11:08:55;5.60;96.40
6948;DHT22;3513;47.664;9.162;2023-02-01T11:11:22;5.60;96.80
6948;DHT22;3513;47.664;9.162;2023-02-01T11:14:13;5.80;97.40
6948;DHT22;3513;47.664;9.162;2023-02-01T11:16:39;5.90;96.10
6948;DHT22;3513;47.664;9.162;2023-02-01T11:19:06;6.10;95.80
6948;DHT22;3513;47.664;9.162;2023-02-01T11:21:33;6.20;95.40
6948;DHT22;3513;47.664;9.162;2023-02-01T11:24:03;6.30;95.30
6948;DHT22;3513;47.664;9.162;2023-02-01T11:26:30;6.40;95.00
6948;DHT22;3513;47.664;9.162;2023-02-01T11:29:10;6.30;94.40
6948;DHT22;3513;47.664;9.162;2023-02-01T11:31:36;6.30;95.00
6948;DHT22;3513;47.664;9.162;2023-02-01T11:34:09;6.40;95.30
6948;DHT22;3513;47.664;9.162;2023-02-01T11:36:39;6.90;94.60
6948;DHT22;3513;47.664;9.162;2023-02-01T11:39:30;6.50;94.50
6948;DHT22;3513;47.664;9.162;2023-02-01T11:42:13;6.50;94.30
6948;DHT22;3513;47.664;9.162;2023-02-01T11:44:41;6.40;94.00
6948;DHT22;3513;47.664;9.162;2023-02-01T11:47:28;6.50;94.10
6948;DHT22;3513;47.664;9.162;2023-02-01T11:49:58;6.50;94.40
6948;DHT22;3513;47.664;9.162;2023-02-01T11:52:59;6.60;93.40
6948;DHT22;3513;47.664;9.162;2023-02-01T11:58:12;6.70;93.30
6948;DHT22;3513;47.664;9.162;2023-02-01T12:00:59;6.60;93.00
6948;DHT22;3513;47.664;9.162;2023-02-01T12:07:14;6.70;93.60
6948;DHT22;3513;47.664;9.162;2023-02-01T12:12:56;6.80;93.00
6948;DHT22;3513;47.664;9.162;2023-02-01T12:18:54;6.90;92.50
6948;DHT22;3513;47.664;9.162;2023-02-01T12:21:41;7.00;92.90
6948;DHT22;3513;47.664;9.162;2023-02-01T12:24:25;7.00;92.30
6948;DHT22;3513;47.664;9.162;2023-02-01T12:32:09;7.00;92.20
6948;DHT22;3513;47.664;9.162;2023-02-01T12:43:01;6.90;92.10
6948;DHT22;3513;47.664;9.162;2023-02-01T12:45:42;6.80;92.20
6948;DHT22;3513;47.664;9.162;2023-02-01T12:48:35;6.90;91.30
6948;DHT22;3513;47.664;9.162;2023-02-01T12:51:08;6.80;91.70
6948;DHT22;3513;47.664;9.162;2023-02-01T12:53:54;6.70;91.50
6948;DHT22;3513;47.664;9.162;2023-02-01T12:56:42;6.70;92.00
6948;DHT22;3513;47.664;9.162;2023-02-01T12:59:31;6.70;91.60
6948;DHT22;3513;47.664;9.162;2023-02-01T13:02:16;6.60;92.00
6948;DHT22;3513;47.664;9.162;2023-02-01T13:05:24;6.60;92.10
6948;DHT22;3513;47.664;9.162;2023-02-01T13:10:45;6.60;92.00
6948;DHT22;3513;47.664;9.162;2023-02-01T13:13:39;6.50;92.00
6948;DHT22;3513;47.664;9.162;2023-02-01T13:16:15;6.50;92.60
6948;DHT22;3513;47.664;9.162;2023-02-01T13:18:47;6.40;92.30
6948;DHT22;3513;47.664;9.162;2023-02-01T13:21:21;6.40;92.70
6948;DHT22;3513;47.664;9.162;2023-02-01T13:23:50;6.40;92.90
6948;DHT22;3513;47.664;9.162;2023-02-01T13:26:16;6.30;94.10
6948;DHT22;3513;47.664;9.162;2023-02-01T13:34:30;6.10;93.50
6948;DHT22;3513;47.664;9.162;2023-02-01T13:42:22;6.10;91.40
6948;DHT22;3513;47.664;9.162;2023-02-01T13:47:25;6.10;90.90
6948;DHT22;3513;47.664;9.162;2023-02-01T13:49:53;6.10;90.80
6948;DHT22;3513;47.664;9.162;2023-02-01T13:52:26;6.20;90.20
6948;DHT22;3513;47.664;9.162;2023-02-01T13:55:14;6.10;89.90
6948;DHT22;3513;47.664;9.162;2023-02-01T13:57:42;6.20;88.70
6948;DHT22;3513;47.664;9.162;2023-02-01T14:00:31;6.20;89.10
6948;DHT22;3513;47.664;9.162;2023-02-01T14:10:52;6.10;89.00
6948;DHT22;3513;47.664;9.162;2023-02-01T14:23:45;6.00;89.60
6948;DHT22;3513;47.664;9.162;2023-02-01T14:26:15;6.00;90.00
6948;DHT22;3513;47.664;9.162;2023-02-01T14:28:49;6.00;89.20
6948;DHT22;3513;47.664;9.162;2023-02-01T14:34:29;6.10;87.20
6948;DHT22;3513;47.664;9.162;2023-02-01T14:36:59;6.10;86.50
6948;DHT22;3513;47.664;9.162;2023-02-01T14:39:32;6.10;85.60
6948;DHT22;3513;47.664;9.162;2023-02-01T14:42:03;6.10;86.20
6948;DHT22;3513;47.664;9.162;2023-02-01T14:44:32;6.10;84.90
6948;DHT22;3513;47.664;9.162;2023-02-01T14:47:10;6.10;85.10
6948;DHT22;3513;47.664;9.162;2023-02-01T14:52:23;6.10;85.60
6948;DHT22;3513;47.664;9.162;2023-02-01T14:54:56;6.10;84.70
6948;DHT22;3513;47.664;9.162;2023-02-01T14:57:26;6.10;85.00
6948;DHT22;3513;47.664;9.162;2023-02-01T15:00:06;6.10;85.10
6948;DHT22;3513;47.664;9.162;2023-02-01T15:02:35;6.10;85.80
6948;DHT22;3513;47.664;9.162;2023-02-01T15:05:02;6.10;85.80
6948;DHT22;3513;47.664;9.162;2023-02-01T15:07:28;6.10;85.60
6948;DHT22;3513;47.664;9.162;2023-02-01T15:09:57;6.10;86.40
6948;DHT22;3513;47.664;9.162;2023-02-01T15:12:26;6.10;85.50
6948;DHT22;3513;47.664;9.162;2023-02-01T15:15:14;6.10;85.60
6948;DHT22;3513;47.664;9.162;2023-02-01T15:17:40;6.10;85.80
6948;DHT22;3513;47.664;9.162;2023-02-01T15:20:21;6.20;85.70
6948;DHT22;3513;47.664;9.162;2023-02-01T15:22:58;6.00;85.90
6948;DHT22;3513;47.664;9.162;2023-02-01T15:25:28;6.00;85.80
6948;DHT22;3513;47.664;9.162;2023-02-01T15:27:54;6.00;86.50
6948;DHT22;3513;47.664;9.162;2023-02-01T15:30:24;6.00;87.00
6948;DHT22;3513;47.664;9.162;2023-02-01T15:32:51;6.00;88.00
6948;DHT22;3513;47.664;9.162;2023-02-01T15:35:35;6.00;88.40
6948;DHT22;3513;47.664;9.162;2023-02-01T15:41:17;6.00;88.50
6948;DHT22;3513;47.664;9.162;2023-02-01T15:43:47;5.90;88.40
6948;DHT22;3513;47.664;9.162;2023-02-01T15:46:18;5.90;88.20
6948;DHT22;3513;47.664;9.162;2023-02-01T15:48:51;5.90;87.90
6948;DHT22;3513;47.664;9.162;2023-02-01T15:51:19;5.90;88.50
6948;DHT22;3513;47.664;9.162;2023-02-01T15:53:56;5.80;88.20
6948;DHT22;3513;47.664;9.162;2023-02-01T15:56:24;6.00;88.90
6948;DHT22;3513;47.664;9.162;2023-02-01T15:58:54;5.80;88.90
6948;DHT22;3513;47.664;9.162;2023-02-01T16:01:21;5.80;89.60
6948;DHT22;3513;47.664;9.162;2023-02-01T16:03:47;5.70;90.00
6948;DHT22;3513;47.664;9.162;2023-02-01T16:09:09;5.70;89.70
6948;DHT22;3513;47.664;9.162;2023-02-01T16:11:56;5.60;88.50
6948;DHT22;3513;47.664;9.162;2023-02-01T16:14:23;5.70;88.60
6948;DHT22;3513;47.664;9.162;2023-02-01T16:16:49;5.60;88.30
6948;DHT22;3513;47.664;9.162;2023-02-01T16:19:15;5.60;88.90
6948;DHT22;3513;47.664;9.162;2023-02-01T16:21:41;5.60;88.00
6948;DHT22;3513;47.664;9.162;2023-02-01T16:24:06;5.60;87.50
6948;DHT22;3513;47.664;9.162;2023-02-01T16:26:33;5.60;87.10
6948;DHT22;3513;47.664;9.162;2023-02-01T16:28:59;5.60;87.30
6948;DHT22;3513;47.664;9.162;2023-02-01T16:31:29;5.60;86.50
6948;DHT22;3513;47.664;9.162;2023-02-01T16:33:56;5.60;86.40
6948;DHT22;3513;47.664;9.162;2023-02-01T16:36:22;5.60;86.20
6948;DHT22;3513;47.664;9.162;2023-02-01T16:38:48;5.60;86.80
6948;DHT22;3513;47.664;9.162;2023-02-01T16:41:17;5.70;86.60
6948;DHT22;3513;47.664;9.162;2023-02-01T16:43:44;5.60;86.50
6948;DHT22;3513;47.664;9.162;2023-02-01T16:46:18;5.60;86.50
6948;DHT22;3513;47.664;9.162;2023-02-01T16:48:59;5.70;86.70
6948;DHT22;3513;47.664;9.162;2023-02-01T16:51:28;5.60;87.00
6948;DHT22;3513;47.664;9.162;2023-02-01T16:53:54;5.60;87.30
6948;DHT22;3513;47.664;9.162;2023-02-01T16:56:29;5.60;86.70
6948;DHT22;3513;47.664;9.162;2023-02-01T16:58:55;5.60;86.90
6948;DHT22;3513;47.664;9.162;2023-02-01T17:01:20;5.60;86.90
6948;DHT22;3513;47.664;9.162;2023-02-01T17:03:46;5.60;87.60
6948;DHT22;3513;47.664;9.162;2023-02-01T17:06:16;5.60;87.30
6948;DHT22;3513;47.664;9.162;2023-02-01T17:08:44;5.60;87.70
6948;DHT22;3513;47.664;9.162;2023-02-01T17:11:11;5.60;87.70
6948;DHT22;3513;47.664;9.162;2023-02-01T17:13:39;5.60;88.90
6948;DHT22;3513;47.664;9.162;2023-02-01T17:16:28;5.60;87.90
6948;DHT22;3513;47.664;9.162;2023-02-01T17:19:00;5.60;88.50
6948;DHT22;3513;47.664;9.162;2023-02-01T17:21:29;5.60;88.30
6948;DHT22;3513;47.664;9.162;2023-02-01T17:23:56;5.50;88.10
6948;DHT22;3513;47.664;9.162;2023-02-01T17:26:24;5.50;87.70
6948;DHT22;3513;47.664;9.162;2023-02-01T17:28:49;6.60;89.20
6948;DHT22;3513;47.664;9.162;2023-02-01T17:31:16;5.50;88.30
6948;DHT22;3513;47.664;9.162;2023-02-01T17:33:42;6.00;88.90
6948;DHT22;3513;47.664;9.162;2023-02-01T17:36:13;5.50;88.70
6948;DHT22;3513;47.664;9.162;2023-02-01T17:38:39;5.50;88.20
6948;DHT22;3513;47.664;9.162;2023-02-01T17:41:04;5.50;87.90
6948;DHT22;3513;47.664;9.162;2023-02-01T17:43:30;5.50;88.10
6948;DHT22;3513;47.664;9.162;2023-02-01T17:46:05;5.50;88.30
6948;DHT22;3513;47.664;9.162;2023-02-01T17:48:31;5.50;88.20
6948;DHT22;3513;47.664;9.162;2023-02-01T17:50:57;5.40;88.40
6948;DHT22;3513;47.664;9.162;2023-02-01T17:53:28;5.50;88.30
6948;DHT22;3513;47.664;9.162;2023-02-01T17:55:54;5.50;88.30
6948;DHT22;3513;47.664;9.162;2023-02-01T17:58:22;5.50;87.50
6948;DHT22;3513;47.664;9.162;2023-02-01T18:00:48;5.50;87.20
6948;DHT22;3513;47.664;9.162;2023-02-01T18:03:23;5.50;87.70
6948;DHT22;3513;47.664;9.162;2023-02-01T18:05:51;5.50;87.30
6948;DHT22;3513;47.664;9.162;2023-02-01T18:08:21;5.50;87.60
6948;DHT22;3513;47.664;9.162;2023-02-01T18:10:49;5.50;87.20
6948;DHT22;3513;47.664;9.162;2023-02-01T18:13:15;5.50;87.20
6948;DHT22;3513;47.664;9.162;2023-02-01T18:15:41;5.50;87.00
6948;DHT22;3513;47.664;9.162;2023-02-01T18:18:08;5.50;87.00
6948;DHT22;3513;47.664;9.162;2023-02-01T18:20:33;5.50;86.80
6948;DHT22;3513;47.664;9.162;2023-02-01T18:23:02;5.50;86.80